Time;durP1;ratioP1;P1;durP2;ratioP2;P2;SDS_P1;SDS_P2;PMS_P1;PMS_P2;Temp;Humidity;BMP_temperature;BMP_pressure;BME280_temperature;BME280_humidity;BME280_pressure;Samples;Min_cycle;Max_cycle;Signal;HPM_P1;HPM_P2
2023/07/08 00:00:30;;;;;;;7.20;3.80;;;;;;;;;;5071530;28;20120;-73
2023/07/08 00:02:56;;;;;;;6.53;3.70;;;;;;;;;;5071926;28;20041;-73
2023/07/08 00:05:23;;;;;;;8.05;4.10;;;;;;;;;;5071531;28;20045;-73
2023/07/08 00:07:49;;;;;;;8.90;3.85;;;;;;;;;;5072651;28;20036;-73
2023/07/08 00:10:20;;;;;;;6.55;3.70;;;;;;;;;;5081725;28;20048;-73
2023/07/08 00:12:48;;;;;;;6.35;3.60;;;;;;;;;;5078947;28;20094;-73
2023/07/08 00:15:15;;;;;;;7.88;4.22;;;;;;;;;;5057180;28;20048;-72
2023/07/08 00:17:42;;;;;;;8.82;4.10;;;;;;;;;;5081360;28;20198;-73
2023/07/08 00:20:17;;;;;;;6.63;3.90;;;;;;;;;;5089776;28;20040;-73
2023/07/08 00:22:46;;;;;;;9.38;4.47;;;;;;;;;;5094992;28;20177;-73
2023/07/08 00:25:13;;;;;;;8.05;3.65;;;;;;;;;;5094758;28;20396;-74
2023/07/08 00:27:39;;;;;;;10.30;4.22;;;;;;;;;;5093178;28;20040;-73
2023/07/08 00:30:18;;;;;;;9.27;4.15;;;;;;;;;;5088459;28;20036;-73
2023/07/08 00:32:44;;;;;;;11.23;4.20;;;;;;;;;;5085114;28;20068;-72
2023/07/08 00:35:10;;;;;;;9.40;4.10;;;;;;;;;;5094900;28;20122;-73
2023/07/08 00:37:37;;;;;;;7.30;4.20;;;;;;;;;;5094335;28;20399;-73
2023/07/08 00:40:12;;;;;;;10.20;4.13;;;;;;;;;;5085456;28;20036;-72
2023/07/08 00:42:38;;;;;;;;;;;;;;;;;;5074097;28;20557;-73
2023/07/08 00:45:04;;;;;;;;;;;;;;;;;;5074992;28;20019;-74
2023/07/08 00:47:30;;;;;;;;;;;;;;;;;;5075711;28;19943;-74
2023/07/08 00:49:56;;;;;;;;;;;;;;;;;;5074951;28;19936;-74
2023/07/08 00:52:22;;;;;;;6.20;4.18;;;;;;;;;;5074581;28;19920;-73
2023/07/08 00:54:56;;;;;;;8.95;4.55;;;;;;;;;;5074459;28;20044;-73
2023/07/08 00:57:24;;;;;;;7.88;4.30;;;;;;;;;;5074409;28;20048;-73
2023/07/08 01:00:22;;;;;;;8.50;4.32;;;;;;;;;;5074279;28;20051;-74
2023/07/08 01:02:50;;;;;;;7.80;4.60;;;;;;;;;;5055357;28;20053;-74
2023/07/08 01:05:22;;;;;;;7.25;4.45;;;;;;;;;;5054406;28;20044;-74
2023/07/08 01:07:53;;;;;;;9.18;4.60;;;;;;;;;;5054383;28;20457;-73
2023/07/08 01:10:23;;;;;;;6.70;4.55;;;;;;;;;;5054021;28;20060;-73
2023/07/08 01:12:53;;;;;;;7.68;4.63;;;;;;;;;;5068828;28;20079;-73
2023/07/08 01:15:20;;;;;;;7.53;4.55;;;;;;;;;;5079574;28;20460;-73
2023/07/08 01:17:46;;;;;;;9.15;4.57;;;;;;;;;;5099822;28;20047;-72
2023/07/08 01:20:14;;;;;;;7.22;4.30;;;;;;;;;;5088364;28;20036;-74
2023/07/08 01:22:41;;;;;;;8.35;4.45;;;;;;;;;;5094504;28;20052;-73
2023/07/08 01:25:08;;;;;;;8.10;4.57;;;;;;;;;;5090691;28;20123;-74
2023/07/08 01:27:36;;;;;;;8.73;4.20;;;;;;;;;;5094372;28;20400;-73
2023/07/08 01:30:03;;;;;;;6.82;4.50;;;;;;;;;;5090506;28;20044;-74
2023/07/08 01:32:30;;;;;;;6.97;4.15;;;;;;;;;;5061569;28;20037;-74
2023/07/08 01:35:01;;;;;;;6.93;4.65;;;;;;;;;;5073633;28;20048;-74
2023/07/08 01:37:30;;;;;;;8.43;4.95;;;;;;;;;;5074974;28;20040;-73
2023/07/08 01:39:56;;;;;;;8.55;4.38;;;;;;;;;;5090830;28;20566;-74
2023/07/08 01:42:22;;;;;;;8.27;4.60;;;;;;;;;;5074929;28;20485;-73
2023/07/08 01:44:49;;;;;;;8.95;4.75;;;;;;;;;;5073666;28;20036;-74
2023/07/08 01:47:17;;;;;;;6.88;4.03;;;;;;;;;;5073107;28;20052;-74
2023/07/08 01:49:45;;;;;;;6.03;4.15;;;;;;;;;;5072344;28;20063;-74
2023/07/08 01:52:12;;;;;;;6.40;4.28;;;;;;;;;;5090520;28;20079;-74
2023/07/08 01:54:38;;;;;;;10.02;5.22;;;;;;;;;;5066352;28;20120;-74
2023/07/08 01:57:04;;;;;;;8.30;4.65;;;;;;;;;;5073398;28;20037;-74
2023/07/08 01:59:31;;;;;;;7.95;4.63;;;;;;;;;;5073076;28;20041;-74
2023/07/08 02:01:57;;;;;;;9.43;4.55;;;;;;;;;;5072476;28;20091;-74
2023/07/08 02:04:24;;;;;;;8.63;4.70;;;;;;;;;;5092788;28;20123;-73
2023/07/08 02:07:00;;;;;;;8.82;4.60;;;;;;;;;;5093412;28;20189;-74
2023/07/08 02:09:27;;;;;;;7.05;4.60;;;;;;;;;;5091713;28;20403;-74
2023/07/08 02:11:53;;;;;;;8.18;4.90;;;;;;;;;;5077073;28;20056;-74
2023/07/08 02:14:20;;;;;;;7.40;4.47;;;;;;;;;;5093111;28;20036;-74
2023/07/08 02:16:46;;;;;;;10.45;4.88;;;;;;;;;;5093397;28;20101;-74
2023/07/08 02:19:12;;;;;;;7.57;4.53;;;;;;;;;;5092831;28;20511;-74
2023/07/08 02:21:39;;;;;;;11.30;5.25;;;;;;;;;;5076362;28;20052;-73
2023/07/08 02:24:05;;;;;;;11.07;5.28;;;;;;;;;;5072767;28;20044;-74
2023/07/08 02:26:32;;;;;;;8.05;5.00;;;;;;;;;;5072957;28;20032;-74
2023/07/08 02:28:58;;;;;;;11.93;5.03;;;;;;;;;;5071528;28;20492;-74
2023/07/08 02:31:25;;;;;;;8.73;4.70;;;;;;;;;;5072543;28;20127;-74
2023/07/08 02:33:51;;;;;;;6.97;4.78;;;;;;;;;;5073548;28;20036;-74
2023/07/08 02:36:17;;;;;;;7.90;4.95;;;;;;;;;;5071333;28;20374;-72
2023/07/08 02:38:44;;;;;;;9.00;4.95;;;;;;;;;;5072479;28;20036;-73
2023/07/08 02:41:11;;;;;;;9.68;4.82;;;;;;;;;;5082544;28;20051;-73
2023/07/08 02:43:38;;;;;;;7.50;4.90;;;;;;;;;;5090703;28;20433;-73
2023/07/08 02:46:04;;;;;;;9.05;5.15;;;;;;;;;;5074789;28;20444;-74
2023/07/08 02:48:30;;;;;;;9.70;5.35;;;;;;;;;;5076334;28;20378;-74
2023/07/08 02:51:00;;;;;;;9.55;4.78;;;;;;;;;;5088957;28;20104;-74
2023/07/08 02:53:26;;;;;;;7.57;4.63;;;;;;;;;;5071497;28;20048;-74
2023/07/08 02:55:52;;;;;;;6.78;5.20;;;;;;;;;;5072486;28;20036;-74
2023/07/08 02:58:18;;;;;;;9.25;5.38;;;;;;;;;;5072599;28;20048;-74
2023/07/08 03:00:44;;;;;;;9.70;5.05;;;;;;;;;;5081258;28;20061;-74
2023/07/08 03:03:10;;;;;;;8.98;5.30;;;;;;;;;;5071181;28;20055;-73
2023/07/08 03:05:37;;;;;;;6.90;5.20;;;;;;;;;;5072251;28;20063;-74
2023/07/08 03:08:03;;;;;;;8.25;5.30;;;;;;;;;;5074175;28;20037;-74
2023/07/08 03:10:29;;;;;;;8.40;5.18;;;;;;;;;;5080891;28;20052;-74
2023/07/08 03:12:55;;;;;;;8.38;5.30;;;;;;;;;;5072217;28;20074;-73
2023/07/08 03:15:21;;;;;;;9.50;5.88;;;;;;;;;;5071839;28;20044;-74
2023/07/08 03:17:47;;;;;;;9.40;5.43;;;;;;;;;;5075297;28;20105;-74
2023/07/08 03:20:13;;;;;;;9.90;5.55;;;;;;;;;;5081988;28;20072;-74
2023/07/08 03:22:40;;;;;;;8.82;5.32;;;;;;;;;;5074110;28;20056;-74
2023/07/08 03:25:06;;;;;;;8.40;5.13;;;;;;;;;;5088985;28;20048;-73
2023/07/08 03:27:32;;;;;;;9.90;5.43;;;;;;;;;;5090759;28;20036;-74
2023/07/08 03:29:59;;;;;;;8.48;5.50;;;;;;;;;;5086323;28;20055;-74
2023/07/08 03:32:25;;;;;;;7.70;5.28;;;;;;;;;;5080268;28;20358;-74
2023/07/08 03:34:51;;;;;;;10.80;6.35;;;;;;;;;;5054723;28;20189;-73
2023/07/08 03:37:17;;;;;;;11.90;6.00;;;;;;;;;;5071862;28;20048;-73
2023/07/08 03:39:44;;;;;;;7.43;5.13;;;;;;;;;;5075411;28;20138;-74
2023/07/08 03:42:10;;;;;;;7.70;5.43;;;;;;;;;;5074018;28;20056;-74
2023/07/08 03:44:36;;;;;;;9.05;5.20;;;;;;;;;;5076095;28;20044;-73
2023/07/08 03:47:02;;;;;;;9.13;5.45;;;;;;;;;;5075866;28;20508;-73
2023/07/08 03:49:28;;;;;;;9.05;5.80;;;;;;;;;;5075949;28;20446;-74
2023/07/08 03:51:55;;;;;;;10.52;5.90;;;;;;;;;;5074466;28;20381;-73
2023/07/08 03:54:22;;;;;;;10.00;5.78;;;;;;;;;;5075906;28;20439;-74
2023/07/08 03:56:48;;;;;;;8.88;5.78;;;;;;;;;;5075686;28;20071;-74
2023/07/08 03:59:15;;;;;;;7.45;5.63;;;;;;;;;;5068523;28;20041;-74
2023/07/08 04:01:41;;;;;;;8.50;5.40;;;;;;;;;;5055537;28;20131;-74
2023/07/08 04:04:07;;;;;;;8.50;5.18;;;;;;;;;;5054665;28;20102;-73
2023/07/08 04:06:34;;;;;;;9.15;5.35;;;;;;;;;;5053466;28;20060;-73
2023/07/08 04:09:00;;;;;;;10.50;5.35;;;;;;;;;;5055542;28;20095;-72
2023/07/08 04:11:26;;;;;;;8.93;5.43;;;;;;;;;;5055091;28;20053;-73
2023/07/08 04:13:52;;;;;;;9.90;5.53;;;;;;;;;;5067169;28;20127;-74
2023/07/08 04:16:18;;;;;;;9.27;5.50;;;;;;;;;;5092666;28;20051;-73
2023/07/08 04:18:44;;;;;;;9.73;5.22;;;;;;;;;;5093566;28;20452;-73
2023/07/08 04:21:11;;;;;;;9.73;5.30;;;;;;;;;;5076626;28;20397;-73
2023/07/08 04:23:37;;;;;;;9.43;5.68;;;;;;;;;;5082414;28;20063;-73
2023/07/08 04:26:03;;;;;;;9.75;5.20;;;;;;;;;;5079746;28;20045;-72
2023/07/08 04:28:29;;;;;;;10.63;5.40;;;;;;;;;;5075031;28;20405;-73
2023/07/08 04:30:55;;;;;;;9.55;5.72;;;;;;;;;;5053283;28;20053;-73
2023/07/08 04:33:21;;;;;;;8.57;5.95;;;;;;;;;;5066878;28;20044;-73
2023/07/08 04:35:47;;;;;;;7.20;5.40;;;;;;;;;;5085016;28;20044;-74
2023/07/08 04:38:18;;;;;;;9.27;5.78;;;;;;;;;;5075780;28;20044;-73
2023/07/08 04:40:44;;;;;;;9.73;5.63;;;;;;;;;;5072205;28;20525;-73
2023/07/08 04:43:11;;;;;;;7.82;4.95;;;;;;;;;;5075118;28;20045;-73
2023/07/08 04:45:38;;;;;;;11.45;5.35;;;;;;;;;;5080953;28;20048;-73
2023/07/08 04:48:08;;;;;;;9.70;6.07;;;;;;;;;;5074967;28;20036;-73
2023/07/08 04:50:35;;;;;;;10.30;4.97;;;;;;;;;;5076299;28;20035;-73
2023/07/08 04:53:02;;;;;;;8.70;5.80;;;;;;;;;;5086466;28;20389;-73
2023/07/08 04:55:28;;;;;;;9.48;5.80;;;;;;;;;;5074078;28;20111;-73
2023/07/08 04:57:54;;;;;;;8.82;5.95;;;;;;;;;;5073890;28;20382;-74
2023/07/08 05:00:22;;;;;;;8.93;5.30;;;;;;;;;;5090603;28;20044;-73
2023/07/08 05:02:48;;;;;;;10.55;5.65;;;;;;;;;;5085805;28;20076;-73
2023/07/08 05:05:14;;;;;;;8.63;5.50;;;;;;;;;;5077807;28;20052;-72
2023/07/08 05:07:40;;;;;;;9.52;5.78;;;;;;;;;;5077031;28;20436;-73
2023/07/08 05:10:07;;;;;;;10.57;5.28;;;;;;;;;;5074483;28;20505;-73
2023/07/08 05:12:33;;;;;;;10.68;5.63;;;;;;;;;;5073584;28;20042;-73
2023/07/08 05:14:59;;;;;;;9.55;4.97;;;;;;;;;;5085835;28;20382;-73
2023/07/08 05:17:26;;;;;;;9.88;5.30;;;;;;;;;;5093217;28;20456;-73
2023/07/08 05:19:52;;;;;;;8.65;5.05;;;;;;;;;;5092548;28;20412;-73
2023/07/08 05:22:18;;;;;;;8.88;5.65;;;;;;;;;;5086148;28;20437;-74
2023/07/08 05:24:44;;;;;;;14.68;5.63;;;;;;;;;;5092541;28;20044;-74
2023/07/08 05:27:13;;;;;;;8.38;5.15;;;;;;;;;;5076685;28;20417;-73
2023/07/08 05:29:39;;;;;;;9.70;5.15;;;;;;;;;;5078135;28;20051;-73
2023/07/08 05:32:06;;;;;;;8.95;5.10;;;;;;;;;;5089365;28;20102;-73
2023/07/08 05:34:32;;;;;;;9.30;5.15;;;;;;;;;;5073753;28;20120;-74
2023/07/08 05:36:58;;;;;;;6.85;5.00;;;;;;;;;;5072454;28;20087;-74
2023/07/08 05:39:24;;;;;;;7.75;5.10;;;;;;;;;;5076494;28;20044;-74
2023/07/08 05:41:50;;;;;;;7.03;5.20;;;;;;;;;;5078422;28;20040;-74
2023/07/08 05:44:16;;;;;;;9.30;5.50;;;;;;;;;;5073866;28;20071;-74
2023/07/08 05:46:42;;;;;;;8.75;4.82;;;;;;;;;;5073735;28;20408;-74
2023/07/08 05:49:09;;;;;;;8.63;5.03;;;;;;;;;;5073868;28;20076;-73
2023/07/08 05:51:35;;;;;;;7.72;5.25;;;;;;;;;;5073242;28;20400;-74
2023/07/08 05:54:01;;;;;;;7.22;4.68;;;;;;;;;;5071727;28;20048;-74
2023/07/08 05:56:27;;;;;;;7.15;4.80;;;;;;;;;;5072954;28;20554;-74
2023/07/08 05:58:53;;;;;;;7.07;5.03;;;;;;;;;;5070529;28;20549;-72
2023/07/08 06:01:19;;;;;;;8.02;5.32;;;;;;;;;;5063532;28;20044;-71
2023/07/08 06:03:45;;;;;;;8.32;5.00;;;;;;;;;;5053664;28;20048;-71
2023/07/08 06:06:11;;;;;;;10.18;4.55;;;;;;;;;;5052266;28;20045;-72
2023/07/08 06:08:37;;;;;;;8.73;4.78;;;;;;;;;;5052020;28;20628;-72
2023/07/08 06:11:04;;;;;;;7.95;4.80;;;;;;;;;;5053194;28;20103;-71
2023/07/08 06:13:30;;;;;;;6.75;4.38;;;;;;;;;;5053585;28;20068;-71
2023/07/08 06:15:56;;;;;;;9.82;5.10;;;;;;;;;;5053103;28;20056;-71
2023/07/08 06:18:22;;;;;;;7.38;4.78;;;;;;;;;;5053515;28;20041;-71
2023/07/08 06:20:52;;;;;;;9.68;4.88;;;;;;;;;;5051742;28;20041;-72
2023/07/08 06:23:18;;;;;;;6.90;4.38;;;;;;;;;;5069210;28;20048;-72
2023/07/08 06:25:44;;;;;;;8.20;4.72;;;;;;;;;;5091720;28;20131;-71
2023/07/08 06:28:11;;;;;;;7.53;4.72;;;;;;;;;;5079750;28;20123;-72
2023/07/08 06:30:37;;;;;;;6.60;4.28;;;;;;;;;;5072644;28;20396;-71
2023/07/08 06:33:03;;;;;;;9.38;4.68;;;;;;;;;;5073108;28;20087;-72
2023/07/08 06:35:29;;;;;;;8.27;4.22;;;;;;;;;;5072794;28;20040;-71
2023/07/08 06:37:56;;;;;;;6.97;4.47;;;;;;;;;;5072730;28;20450;-71
2023/07/08 06:40:22;;;;;;;7.55;4.18;;;;;;;;;;5072790;28;20401;-72
2023/07/08 06:42:48;;;;;;;7.82;4.38;;;;;;;;;;5071779;28;20041;-71
2023/07/08 06:45:14;;;;;;;8.15;4.10;;;;;;;;;;5072546;28;20409;-71
2023/07/08 06:47:40;;;;;;;9.35;4.90;;;;;;;;;;5072789;28;20075;-71
2023/07/08 06:50:07;;;;;;;6.70;4.32;;;;;;;;;;5072215;28;20064;-71
2023/07/08 06:52:36;;;;;;;6.13;3.65;;;;;;;;;;5072954;28;20041;-71
2023/07/08 06:55:06;;;;;;;6.78;3.85;;;;;;;;;;5092823;28;20476;-71
2023/07/08 06:57:32;;;;;;;5.88;4.03;;;;;;;;;;5091508;28;20125;-71
2023/07/08 06:59:59;;;;;;;5.68;4.18;;;;;;;;;;5087808;28;20039;-72
2023/07/08 07:02:25;;;;;;;7.57;4.22;;;;;;;;;;5090663;28;20056;-71
2023/07/08 07:04:52;;;;;;;7.35;3.83;;;;;;;;;;5090782;28;20044;-71
2023/07/08 07:07:18;;;;;;;6.75;4.22;;;;;;;;;;5092679;28;20051;-71
2023/07/08 07:09:44;;;;;;;8.23;4.22;;;;;;;;;;5090902;28;20052;-71
2023/07/08 07:12:10;;;;;;;7.55;3.92;;;;;;;;;;5092635;28;20048;-71
2023/07/08 07:14:36;;;;;;;8.07;4.00;;;;;;;;;;5092372;28;20048;-71
2023/07/08 07:17:02;;;;;;;7.28;3.72;;;;;;;;;;5092000;28;20044;-72
2023/07/08 07:19:28;;;;;;;6.10;3.80;;;;;;;;;;5092343;28;20036;-71
2023/07/08 07:21:55;;;;;;;6.10;3.75;;;;;;;;;;5090818;28;20134;-71
2023/07/08 07:24:21;;;;;;;10.00;4.18;;;;;;;;;;5076636;28;20040;-71
2023/07/08 07:26:47;;;;;;;6.20;3.90;;;;;;;;;;5072051;28;20489;-71
2023/07/08 07:29:16;;;;;;;7.47;4.03;;;;;;;;;;5089097;28;20040;-71
2023/07/08 07:31:43;;;;;;;4.82;3.28;;;;;;;;;;5092257;28;20062;-71
2023/07/08 07:34:11;;;;;;;6.10;3.85;;;;;;;;;;5092387;28;20079;-71
2023/07/08 07:36:37;;;;;;;6.78;3.80;;;;;;;;;;5092053;28;20048;-72
2023/07/08 07:39:03;;;;;;;6.43;3.65;;;;;;;;;;5092908;28;20074;-71
2023/07/08 07:41:30;;;;;;;6.35;3.60;;;;;;;;;;5092138;28;20050;-71
2023/07/08 07:43:56;;;;;;;9.35;3.85;;;;;;;;;;5092233;28;20119;-71
2023/07/08 07:46:22;;;;;;;5.68;3.58;;;;;;;;;;5092182;28;20084;-72
2023/07/08 07:48:48;;;;;;;4.75;3.35;;;;;;;;;;5084650;28;20120;-72
2023/07/08 07:51:15;;;;;;;8.63;4.05;;;;;;;;;;5071627;28;20048;-72
2023/07/08 07:53:41;;;;;;;8.77;4.32;;;;;;;;;;5059066;28;20049;-72
2023/07/08 07:56:08;;;;;;;9.38;3.97;;;;;;;;;;5071475;28;20084;-70
2023/07/08 07:58:34;;;;;;;10.35;4.00;;;;;;;;;;5063153;28;20043;-71
2023/07/08 08:01:00;;;;;;;6.25;3.60;;;;;;;;;;5051129;28;20045;-71
2023/07/08 08:03:26;;;;;;;6.13;3.90;;;;;;;;;;5052058;28;20456;-70
2023/07/08 08:05:53;;;;;;;10.18;3.38;;;;;;;;;;5051821;28;20123;-71
2023/07/08 08:08:19;;;;;;;6.63;3.47;;;;;;;;;;5051921;28;20450;-71
2023/07/08 08:10:45;;;;;;;5.10;3.40;;;;;;;;;;5050355;28;20135;-71
2023/07/08 08:13:12;;;;;;;7.88;3.53;;;;;;;;;;5052084;28;20381;-71
2023/07/08 08:15:38;;;;;;;6.32;3.22;;;;;;;;;;5051703;28;20049;-71
2023/07/08 08:18:04;;;;;;;6.10;3.40;;;;;;;;;;5051926;28;20124;-71
2023/07/08 08:20:30;;;;;;;5.18;3.25;;;;;;;;;;5063755;28;20564;-71
2023/07/08 08:22:56;;;;;;;7.03;3.22;;;;;;;;;;5069561;28;20048;-71
2023/07/08 08:25:23;;;;;;;5.03;3.28;;;;;;;;;;5076351;28;20123;-72
2023/07/08 08:27:51;;;;;;;7.20;3.55;;;;;;;;;;5071109;28;20053;-71
2023/07/08 08:30:17;;;;;;;5.68;3.33;;;;;;;;;;5075541;28;20053;-71
2023/07/08 08:32:43;;;;;;;5.28;3.10;;;;;;;;;;5075439;28;20409;-71
2023/07/08 08:35:10;;;;;;;5.60;3.25;;;;;;;;;;5073385;28;20127;-70
2023/07/08 08:37:36;;;;;;;6.07;3.30;;;;;;;;;;5074062;28;20476;-72
2023/07/08 08:40:02;;;;;;;4.20;3.13;;;;;;;;;;5073583;28;20040;-71
2023/07/08 08:42:31;;;;;;;5.30;3.38;;;;;;;;;;5080184;28;20043;-71
2023/07/08 08:44:58;;;;;;;6.88;3.13;;;;;;;;;;5074940;28;20076;-70
2023/07/08 08:47:31;;;;;;;7.93;3.03;;;;;;;;;;5078084;28;20036;-71
2023/07/08 08:50:01;;;;;;;5.70;3.17;;;;;;;;;;5077055;28;20468;-71
2023/07/08 08:52:27;;;;;;;7.38;3.20;;;;;;;;;;5079676;28;20133;-70
2023/07/08 08:54:53;;;;;;;5.57;3.30;;;;;;;;;;5097940;28;20119;-71
2023/07/08 08:57:19;;;;;;;6.32;3.00;;;;;;;;;;5094534;28;20055;-71
2023/07/08 08:59:52;;;;;;;6.50;3.60;;;;;;;;;;5093783;28;20225;-71
2023/07/08 09:02:31;;;;;;;7.15;3.30;;;;;;;;;;5094989;28;20043;-71
2023/07/08 09:05:01;;;;;;;6.07;2.95;;;;;;;;;;5095064;28;20555;-71
2023/07/08 09:07:29;;;;;;;6.47;2.72;;;;;;;;;;5094260;28;20079;-71
2023/07/08 09:09:58;;;;;;;5.53;3.10;;;;;;;;;;5091040;28;20071;-72
2023/07/08 09:12:26;;;;;;;5.93;3.20;;;;;;;;;;5093413;28;20070;-71
2023/07/08 09:14:52;;;;;;;6.15;3.15;;;;;;;;;;5094532;28;20044;-71
2023/07/08 09:17:23;;;;;;;6.00;2.90;;;;;;;;;;5094618;28;20084;-71
2023/07/08 09:20:04;;;;;;;5.32;2.90;;;;;;;;;;5093346;28;20078;-72
2023/07/08 09:22:39;;;;;;;6.78;3.22;;;;;;;;;;5076818;28;20044;-72
2023/07/08 09:25:26;;;;;;;6.20;3.08;;;;;;;;;;5074140;28;20054;-72
2023/07/08 09:27:52;;;;;;;4.72;3.05;;;;;;;;;;5060027;28;20049;-72
2023/07/08 09:30:24;;;;;;;6.97;3.10;;;;;;;;;;5062026;28;20056;-72
2023/07/08 09:32:50;;;;;;;5.03;2.80;;;;;;;;;;5074294;28;20056;-72
2023/07/08 09:35:21;;;;;;;8.10;3.10;;;;;;;;;;5077200;28;20070;-71
2023/07/08 09:37:48;;;;;;;8.32;3.15;;;;;;;;;;5086311;28;20043;-72
2023/07/08 09:40:17;;;;;;;5.63;2.95;;;;;;;;;;5073492;28;20098;-72
2023/07/08 09:42:45;;;;;;;4.78;3.28;;;;;;;;;;5072508;28;20062;-72
2023/07/08 09:45:13;;;;;;;5.75;2.90;;;;;;;;;;5073930;28;20063;-72
2023/07/08 09:47:40;;;;;;;6.30;3.25;;;;;;;;;;5092864;28;20040;-72
2023/07/08 09:50:23;;;;;;;6.97;3.10;;;;;;;;;;5093181;28;20104;-72
2023/07/08 09:52:49;;;;;;;5.10;2.80;;;;;;;;;;5089110;28;20127;-72
2023/07/08 09:55:16;;;;;;;5.78;3.28;;;;;;;;;;5093647;28;20209;-72
2023/07/08 09:57:43;;;;;;;5.63;2.72;;;;;;;;;;5091990;28;20044;-72
2023/07/08 10:00:12;;;;;;;6.60;3.28;;;;;;;;;;5093689;28;20040;-72
2023/07/08 10:02:52;;;;;;;4.82;2.97;;;;;;;;;;5093682;28;20131;-72
2023/07/08 10:05:18;;;;;;;6.15;3.05;;;;;;;;;;5093468;28;20047;-72
2023/07/08 10:07:45;;;;;;;4.70;3.05;;;;;;;;;;5090443;28;20051;-72
2023/07/08 10:10:14;;;;;;;6.05;2.90;;;;;;;;;;5073816;28;20052;-72
2023/07/08 10:12:42;;;;;;;7.80;3.10;;;;;;;;;;5073645;28;20041;-72
2023/07/08 10:15:17;;;;;;;5.57;2.95;;;;;;;;;;5072519;28;20094;-72
2023/07/08 10:17:43;;;;;;;6.55;2.90;;;;;;;;;;5070228;28;20032;-72
2023/07/08 10:20:13;;;;;;;4.93;3.13;;;;;;;;;;5066899;28;20473;-72
2023/07/08 10:22:58;;;;;;;8.80;3.30;;;;;;;;;;5074614;28;20369;-72
2023/07/08 10:25:30;;;;;;;8.18;3.08;;;;;;;;;;5073786;28;20071;-73
2023/07/08 10:27:59;;;;;;;4.47;2.80;;;;;;;;;;5054487;28;20057;-72
2023/07/08 10:30:26;;;;;;;6.57;3.03;;;;;;;;;;5051075;28;20573;-72
2023/07/08 10:32:58;;;;;;;6.22;3.00;;;;;;;;;;5052862;28;20045;-72
2023/07/08 10:35:29;;;;;;;3.95;2.78;;;;;;;;;;5064248;28;20040;-72
2023/07/08 10:38:13;;;;;;;5.70;3.05;;;;;;;;;;5073840;28;20485;-72
2023/07/08 10:40:45;;;;;;;6.75;3.10;;;;;;;;;;5091269;28;20040;-75
2023/07/08 10:43:11;;;;;;;6.38;3.00;;;;;;;;;;5087266;28;20048;-72
2023/07/08 10:45:38;;;;;;;5.57;2.88;;;;;;;;;;5069672;28;20481;-71
2023/07/08 10:48:10;;;;;;;5.97;3.10;;;;;;;;;;5061843;28;20044;-71
2023/07/08 10:50:49;;;;;;;6.28;2.97;;;;;;;;;;5056260;28;20123;-72
2023/07/08 10:53:18;;;;;;;8.60;2.80;;;;;;;;;;5052986;28;20040;-71
2023/07/08 10:55:44;;;;;;;4.88;2.97;;;;;;;;;;5056851;28;20040;-70
2023/07/08 10:58:28;;;;;;;6.20;2.92;;;;;;;;;;5071427;28;20044;-70
2023/07/08 11:01:03;;;;;;;7.75;2.97;;;;;;;;;;5058326;28;20415;-70
2023/07/08 11:03:29;;;;;;;6.05;2.80;;;;;;;;;;5071202;28;20106;-71
2023/07/08 11:06:16;;;;;;;8.48;2.90;;;;;;;;;;5073898;28;20581;-72
2023/07/08 11:08:48;;;;;;;6.28;2.50;;;;;;;;;;5071619;28;20053;-72
2023/07/08 11:11:16;;;;;;;5.00;2.50;;;;;;;;;;5071708;28;20086;-71
2023/07/08 11:13:45;;;;;;;7.65;2.75;;;;;;;;;;5065960;28;20052;-71
2023/07/08 11:16:22;;;;;;;7.00;2.65;;;;;;;;;;5051751;28;20136;-71
2023/07/08 11:19:02;;;;;;;4.90;2.67;;;;;;;;;;5052099;28;20070;-72
2023/07/08 11:21:31;;;;;;;6.30;2.70;;;;;;;;;;5051780;28;20484;-72
2023/07/08 11:24:09;;;;;;;5.70;2.78;;;;;;;;;;5055858;28;20123;-73
2023/07/08 11:26:35;;;;;;;5.07;2.60;;;;;;;;;;5066439;28;20085;-73
2023/07/08 11:29:02;;;;;;;8.98;2.50;;;;;;;;;;5071489;28;20045;-74
2023/07/08 11:31:31;;;;;;;3.75;2.50;;;;;;;;;;5081677;28;20442;-74
2023/07/08 11:33:58;;;;;;;4.50;2.40;;;;;;;;;;5085875;28;20399;-73
2023/07/08 11:36:25;;;;;;;6.05;2.53;;;;;;;;;;5072600;28;20048;-73
2023/07/08 11:38:53;;;;;;;4.82;2.65;;;;;;;;;;5076688;28;20435;-72
2023/07/08 11:41:24;;;;;;;5.60;2.63;;;;;;;;;;5077700;28;20040;-73
2023/07/08 11:43:51;;;;;;;6.25;2.97;;;;;;;;;;5084782;28;20066;-74
2023/07/08 11:46:20;;;;;;;3.95;2.78;;;;;;;;;;5088701;28;20123;-74
2023/07/08 11:48:50;;;;;;;5.35;2.50;;;;;;;;;;5081971;28;20025;-75
2023/07/08 11:51:21;;;;;;;7.97;2.85;;;;;;;;;;5068680;28;20044;-75
2023/07/08 11:53:48;;;;;;;6.50;3.00;;;;;;;;;;5054777;28;20052;-75
2023/07/08 11:56:18;;;;;;;6.07;2.80;;;;;;;;;;5067571;28;20084;-75
2023/07/08 11:58:59;;;;;;;6.35;2.88;;;;;;;;;;5068261;28;20047;-74
2023/07/08 12:01:39;;;;;;;5.32;2.88;;;;;;;;;;5068287;28;20489;-73
2023/07/08 12:04:09;;;;;;;6.88;3.03;;;;;;;;;;5070215;28;20055;-75
2023/07/08 12:06:35;;;;;;;4.07;2.85;;;;;;;;;;5071575;28;20044;-74
2023/07/08 12:09:14;;;;;;;3.95;2.92;;;;;;;;;;5071981;28;20060;-74
2023/07/08 12:11:41;;;;;;;4.90;3.03;;;;;;;;;;5071756;28;20523;-74
2023/07/08 12:14:08;;;;;;;5.05;2.92;;;;;;;;;;5071530;28;20477;-72
2023/07/08 12:16:34;;;;;;;6.13;2.80;;;;;;;;;;5072014;28;20437;-74
2023/07/08 12:19:04;;;;;;;8.65;3.10;;;;;;;;;;5071491;28;20464;-74
2023/07/08 12:21:30;;;;;;;4.78;3.03;;;;;;;;;;5073447;28;20040;-74
2023/07/08 12:24:03;;;;;;;7.05;2.88;;;;;;;;;;5071535;28;20047;-74
2023/07/08 12:26:29;;;;;;;6.07;2.67;;;;;;;;;;5071907;28;20044;-74
2023/07/08 12:28:57;;;;;;;6.22;2.85;;;;;;;;;;5071650;28;20087;-74
2023/07/08 12:31:24;;;;;;;6.63;2.78;;;;;;;;;;5067362;28;20560;-73
2023/07/08 12:33:51;;;;;;;6.45;3.13;;;;;;;;;;5071553;28;20132;-73
2023/07/08 12:36:25;;;;;;;4.50;2.80;;;;;;;;;;5071519;28;20071;-73
2023/07/08 12:38:52;;;;;;;5.15;2.92;;;;;;;;;;5070643;28;20044;-73
2023/07/08 12:41:20;;;;;;;7.88;3.05;;;;;;;;;;5073803;28;20643;-72
2023/07/08 12:43:46;;;;;;;6.65;2.90;;;;;;;;;;5057461;28;20409;-73
2023/07/08 12:46:14;;;;;;;6.72;3.20;;;;;;;;;;5072271;28;20080;-74
2023/07/08 12:48:40;;;;;;;6.80;3.20;;;;;;;;;;5071347;28;20395;-73
2023/07/08 12:51:11;;;;;;;5.97;3.10;;;;;;;;;;5071277;28;20052;-73
2023/07/08 12:53:37;;;;;;;6.55;3.30;;;;;;;;;;5069335;28;20048;-74
2023/07/08 12:56:04;;;;;;;4.93;3.15;;;;;;;;;;5070327;28;20119;-73
2023/07/08 12:58:31;;;;;;;5.93;3.17;;;;;;;;;;5069811;28;20079;-72
2023/07/08 13:00:58;;;;;;;8.93;3.13;;;;;;;;;;5071168;28;20048;-73
2023/07/08 13:03:26;;;;;;;8.32;3.00;;;;;;;;;;5071231;28;20040;-72
2023/07/08 13:05:53;;;;;;;4.97;3.20;;;;;;;;;;5070407;28;20052;-72
2023/07/08 13:08:23;;;;;;;5.22;3.17;;;;;;;;;;5069765;28;20060;-71
2023/07/08 13:10:51;;;;;;;10.90;3.50;;;;;;;;;;5071062;28;20055;-72
2023/07/08 13:13:32;;;;;;;8.85;3.30;;;;;;;;;;5053101;28;20051;-71
2023/07/08 13:15:58;;;;;;;9.35;3.40;;;;;;;;;;5070312;28;20094;-73
2023/07/08 13:18:34;;;;;;;5.22;3.22;;;;;;;;;;5069671;28;20040;-72
2023/07/08 13:21:01;;;;;;;6.00;3.28;;;;;;;;;;5070796;28;20048;-72
2023/07/08 13:23:28;;;;;;;5.50;3.35;;;;;;;;;;5071774;28;20128;-72
2023/07/08 13:25:54;;;;;;;5.90;3.45;;;;;;;;;;5069592;28;20116;-72
2023/07/08 13:28:36;;;;;;;6.40;3.30;;;;;;;;;;5070699;28;20049;-71
2023/07/08 13:31:03;;;;;;;7.80;3.40;;;;;;;;;;5069236;28;20135;-72
2023/07/08 13:33:31;;;;;;;5.65;3.38;;;;;;;;;;5070858;28;20083;-73
2023/07/08 13:35:57;;;;;;;7.03;3.50;;;;;;;;;;5070983;28;20133;-72
2023/07/08 13:38:24;;;;;;;6.03;3.35;;;;;;;;;;5053694;28;20578;-72
2023/07/08 13:40:55;;;;;;;6.32;3.53;;;;;;;;;;5069957;28;20105;-74
2023/07/08 13:43:28;;;;;;;4.90;3.40;;;;;;;;;;5070432;28;20123;-74
2023/07/08 13:45:55;;;;;;;6.90;3.53;;;;;;;;;;5070113;28;20494;-74
2023/07/08 13:48:29;;;;;;;7.15;3.83;;;;;;;;;;5070153;28;20484;-73
2023/07/08 13:50:58;;;;;;;5.55;3.55;;;;;;;;;;5069627;28;20517;-74
2023/07/08 13:53:34;;;;;;;7.72;5.32;;;;;;;;;;5067546;28;20049;-74
2023/07/08 13:56:01;;;;;;;9.43;6.85;;;;;;;;;;5070116;28;20378;-73
2023/07/08 13:58:29;;;;;;;10.27;7.20;;;;;;;;;;5069765;28;20048;-74
2023/07/08 14:00:56;;;;;;;11.52;8.20;;;;;;;;;;5069378;28;20036;-74
2023/07/08 14:03:22;;;;;;;11.23;8.98;;;;;;;;;;5069739;28;20036;-74
2023/07/08 14:05:48;;;;;;;14.38;9.07;;;;;;;;;;5069965;28;20063;-74
2023/07/08 14:08:22;;;;;;;11.05;8.55;;;;;;;;;;5068682;28;20588;-74
2023/07/08 14:10:48;;;;;;;12.30;8.38;;;;;;;;;;5068937;28;20117;-74
2023/07/08 14:13:15;;;;;;;12.25;7.80;;;;;;;;;;5069567;28;20508;-74
2023/07/08 14:15:41;;;;;;;9.63;7.13;;;;;;;;;;5069570;28;20119;-74
2023/07/08 14:18:10;;;;;;;11.75;6.72;;;;;;;;;;5068148;28;20109;-73
2023/07/08 14:20:37;;;;;;;12.50;6.88;;;;;;;;;;5069214;28;20036;-73
2023/07/08 14:23:03;;;;;;;10.30;6.90;;;;;;;;;;5070573;28;20043;-73
2023/07/08 14:25:29;;;;;;;7.90;6.28;;;;;;;;;;5069209;28;20044;-73
2023/07/08 14:27:56;;;;;;;7.80;5.32;;;;;;;;;;5068899;28;20131;-73
2023/07/08 14:30:22;;;;;;;7.20;4.80;;;;;;;;;;5067645;28;20176;-73
2023/07/08 14:32:49;;;;;;;10.40;4.88;;;;;;;;;;5069971;28;20053;-73
2023/07/08 14:35:17;;;;;;;8.07;4.70;;;;;;;;;;5069748;28;20136;-73
2023/07/08 14:37:44;;;;;;;7.90;4.85;;;;;;;;;;5070681;28;20528;-74
2023/07/08 14:40:33;;;;;;;10.50;4.68;;;;;;;;;;5068100;28;20047;-73
2023/07/08 14:43:04;;;;;;;9.27;4.70;;;;;;;;;;5068242;28;20520;-74
2023/07/08 14:45:32;;;;;;;10.50;4.57;;;;;;;;;;5069350;28;20063;-73
2023/07/08 14:47:58;;;;;;;9.38;4.70;;;;;;;;;;5069371;28;20036;-73